createdAt,value
2022-11-16T00:00:45.255Z,70.57
2022-11-16T00:03:48.395Z,75.45
2022-11-16T00:06:51.294Z,67.37
2022-11-16T00:09:54.132Z,71.43
2022-11-16T00:12:57.019Z,73.95
2022-11-16T00:16:00.179Z,68.78
2022-11-16T00:19:05.380Z,73.87
2022-11-16T00:22:08.169Z,66.50
2022-11-16T00:25:11.032Z,66.37
2022-11-16T00:28:14.088Z,70.22
2022-11-16T00:31:16.847Z,70.05
2022-11-16T00:34:20.252Z,73.00
2022-11-16T00:37:23.094Z,74.43
2022-11-16T00:40:25.917Z,78.50
2022-11-16T00:43:28.958Z,70.03
2022-11-16T00:46:31.806Z,74.65
2022-11-16T00:49:34.806Z,76.22
2022-11-16T00:52:37.602Z,80.93
2022-11-16T00:55:40.576Z,76.07
2022-11-16T00:58:43.597Z,83.78
2022-11-16T01:01:46.504Z,83.43
2022-11-16T01:04:49.506Z,82.35
2022-11-16T01:07:52.863Z,80.20
2022-11-16T01:10:55.709Z,82.13
2022-11-16T01:13:58.484Z,84.15
2022-11-16T01:17:01.408Z,96.95
2022-11-16T01:20:06.373Z,87.90
2022-11-16T01:23:09.203Z,88.30
2022-11-16T01:26:14.181Z,86.50
2022-11-16T01:29:17.274Z,81.07
2022-11-16T01:32:20.100Z,84.55
2022-11-16T01:35:23.373Z,81.05
2022-11-16T01:38:29.783Z,84.77
2022-11-16T01:41:33.258Z,78.83
2022-11-16T01:44:36.040Z,84.80
2022-11-16T01:47:38.952Z,84.32
2022-11-16T01:50:42.264Z,89.72
2022-11-16T01:53:45.404Z,84.00
2022-11-16T01:56:52.027Z,84.00
2022-11-16T02:00:00.483Z,81.30
2022-11-16T02:03:03.381Z,83.43
2022-11-16T02:06:06.186Z,90.93
2022-11-16T02:09:54.961Z,89.77
2022-11-16T02:13:11.727Z,82.37
2022-11-16T02:16:41.490Z,95.00
2022-11-16T02:19:53.282Z,90.05
2022-11-16T02:23:14.352Z,86.47
2022-11-16T02:26:32.859Z,84.27
2022-11-16T02:29:50.555Z,93.63
2022-11-16T02:32:58.189Z,85.75
2022-11-16T02:36:03.228Z,93.20
2022-11-16T02:39:09.403Z,88.22
2022-11-16T02:42:17.926Z,88.77
2022-11-16T02:45:24.042Z,90.33
2022-11-16T02:48:30.742Z,81.07
2022-11-16T02:51:35.396Z,85.93
2022-11-16T02:54:38.193Z,88.47
2022-11-16T02:58:00.010Z,81.83
2022-11-16T03:01:13.697Z,84.13
2022-11-16T03:04:28.028Z,75.40
2022-11-16T03:07:35.340Z,77.97
2022-11-16T03:10:58.834Z,69.77
2022-11-16T03:14:05.899Z,72.22
2022-11-16T03:17:12.554Z,76.20
2022-11-16T03:20:20.938Z,75.75
2022-11-16T03:23:23.862Z,76.87
2022-11-16T03:26:32.232Z,70.97
2022-11-16T03:29:56.221Z,73.55
2022-11-16T03:33:02.047Z,66.87
2022-11-16T03:36:10.034Z,70.55
2022-11-16T03:39:23.011Z,70.43
2022-11-16T03:42:27.011Z,65.87
2022-11-16T03:45:30.939Z,77.53
2022-11-16T03:48:39.588Z,74.00
2022-11-16T03:51:42.500Z,71.07
2022-11-16T03:54:45.396Z,74.85
2022-11-16T03:57:48.220Z,85.57
2022-11-16T04:00:51.090Z,76.35
2022-11-16T04:03:54.122Z,68.22
2022-11-16T04:07:15.659Z,63.25
2022-11-16T04:10:36.994Z,63.40
2022-11-16T04:13:58.142Z,64.27
2022-11-16T04:17:19.413Z,65.97
2022-11-16T04:20:40.555Z,66.55
2022-11-16T04:24:02.299Z,69.18
2022-11-16T04:27:27.550Z,68.35
2022-11-16T04:30:50.404Z,66.93
2022-11-16T04:34:12.726Z,68.43
2022-11-16T04:37:36.970Z,65.18
2022-11-16T04:40:39.830Z,66.25
2022-11-16T04:43:42.718Z,64.05
2022-11-16T04:47:05.081Z,69.13
2022-11-16T04:50:08.332Z,67.68
2022-11-16T04:53:11.741Z,65.97
2022-11-16T04:56:14.617Z,73.10
2022-11-16T04:59:18.283Z,62.30
2022-11-16T05:02:21.423Z,65.03
2022-11-16T05:05:24.303Z,62.67
2022-11-16T05:08:27.471Z,64.53
2022-11-16T05:11:30.426Z,65.43
2022-11-16T05:14:33.548Z,62.15
2022-11-16T05:17:36.680Z,64.43
2022-11-16T05:20:58.096Z,66.93
2022-11-16T05:24:19.245Z,62.78
2022-11-16T05:27:23.433Z,60.22
2022-11-16T05:30:26.401Z,60.80
2022-11-16T05:33:29.210Z,54.87
2022-11-16T05:36:32.402Z,61.95
2022-11-16T05:39:35.872Z,59.53
2022-11-16T05:42:38.769Z,58.35
2022-11-16T05:45:41.634Z,54.30
2022-11-16T05:48:44.685Z,61.23
2022-11-16T05:51:48.059Z,58.55
2022-11-16T05:54:50.995Z,53.47
2022-11-16T05:57:54.091Z,55.22
2022-11-16T06:00:58.373Z,53.75
2022-11-16T06:04:02.257Z,51.63
2022-11-16T06:07:05.095Z,53.33
2022-11-16T06:10:08.321Z,53.05
2022-11-16T06:13:11.316Z,47.47
2022-11-16T06:16:14.285Z,51.42
2022-11-16T06:19:17.133Z,50.03
2022-11-16T06:22:19.965Z,49.60
2022-11-16T06:25:23.260Z,47.67
2022-11-16T06:28:26.356Z,45.83
2022-11-16T06:31:29.997Z,49.17
2022-11-16T06:34:33.143Z,51.13
2022-11-16T06:37:36.100Z,48.80
2022-11-16T06:40:39.152Z,47.65
2022-11-16T06:43:42.239Z,44.80
2022-11-16T06:46:45.173Z,45.80
2022-11-16T06:49:48.142Z,44.67
2022-11-16T06:52:51.134Z,44.08
2022-11-16T06:55:54.058Z,41.50
2022-11-16T06:58:57.566Z,44.38
2022-11-16T07:02:00.515Z,41.22
2022-11-16T07:05:04.223Z,47.87
2022-11-16T07:08:07.339Z,42.95
2022-11-16T07:11:10.915Z,44.50
2022-11-16T07:14:13.909Z,43.20
2022-11-16T07:17:16.884Z,42.38
2022-11-16T07:20:20.026Z,42.70
2022-11-16T07:23:23.125Z,40.25
2022-11-16T07:26:26.130Z,40.40
2022-11-16T07:29:29.652Z,43.00
2022-11-16T07:32:32.510Z,41.28
2022-11-16T07:35:35.653Z,37.17
2022-11-16T07:38:38.924Z,37.17
2022-11-16T07:41:45.362Z,38.53
2022-11-16T07:44:48.237Z,36.13
2022-11-16T07:47:53.565Z,36.20
2022-11-16T07:51:02.803Z,35.57
2022-11-16T07:54:06.840Z,36.78
2022-11-16T07:57:09.915Z,34.58
2022-11-16T08:00:13.192Z,36.63
2022-11-16T08:03:19.298Z,33.85
2022-11-16T08:06:28.409Z,35.27
2022-11-16T08:09:31.306Z,33.85
2022-11-16T08:12:34.215Z,32.90
2022-11-16T08:15:37.098Z,33.85
2022-11-16T08:18:41.974Z,35.83
2022-11-16T08:21:46.195Z,36.57
2022-11-16T08:24:49.618Z,36.28
2022-11-16T08:27:52.387Z,34.70
2022-11-16T08:30:55.553Z,35.90
2022-11-16T08:34:00.657Z,35.75
2022-11-16T08:37:03.508Z,34.70
2022-11-16T08:40:07.153Z,34.63
2022-11-16T08:43:11.358Z,33.88
2022-11-16T08:46:14.500Z,38.13
2022-11-16T08:49:17.556Z,36.22
2022-11-16T08:52:20.528Z,37.57
2022-11-16T08:55:24.180Z,38.70
2022-11-16T08:58:27.059Z,38.38
2022-11-16T09:01:32.812Z,38.33
2022-11-16T09:04:37.306Z,35.60
2022-11-16T09:07:42.239Z,37.20
2022-11-16T09:10:45.276Z,37.22
2022-11-16T09:13:50.078Z,38.05
2022-11-16T09:16:53.008Z,34.90
2022-11-16T09:19:55.944Z,38.15
2022-11-16T09:22:58.863Z,40.27
2022-11-16T09:26:03.960Z,38.53
2022-11-16T09:29:06.887Z,40.20
2022-11-16T09:32:09.716Z,40.35
2022-11-16T09:35:12.736Z,41.33
2022-11-16T09:38:22.056Z,38.77
2022-11-16T09:41:51.507Z,47.85
2022-11-16T09:45:09.121Z,43.60
2022-11-16T09:48:13.806Z,37.58
2022-11-16T09:51:19.131Z,40.20
2022-11-16T09:54:28.169Z,38.00
2022-11-16T09:57:35.183Z,42.38
2022-11-16T10:00:38.760Z,43.50
2022-11-16T10:03:43.911Z,39.53
2022-11-16T10:07:00.118Z,39.75
2022-11-16T10:10:03.747Z,39.07
2022-11-16T10:13:07.329Z,40.70
2022-11-16T10:16:16.474Z,40.78
2022-11-16T10:19:40.644Z,40.10
2022-11-16T10:23:08.779Z,41.85
2022-11-16T10:26:14.864Z,37.80
2022-11-16T10:29:33.891Z,37.92
2022-11-16T10:32:56.307Z,39.22
2022-11-16T10:35:59.318Z,40.70
2022-11-16T10:39:02.904Z,41.72
2022-11-16T10:42:11.560Z,39.80
2022-11-16T10:45:21.035Z,42.35
2022-11-16T10:48:37.833Z,38.35
2022-11-16T10:51:40.736Z,35.92
2022-11-16T10:54:44.548Z,38.38
2022-11-16T10:58:05.680Z,45.47
2022-11-16T11:01:10.949Z,40.72
2022-11-16T11:04:20.092Z,40.15
2022-11-16T11:07:40.195Z,41.37
2022-11-16T11:10:43.356Z,41.25
2022-11-16T11:13:46.277Z,39.90
2022-11-16T11:16:53.887Z,38.47
2022-11-16T11:20:04.141Z,37.95
2022-11-16T11:23:13.256Z,39.03
2022-11-16T11:26:37.354Z,39.20
2022-11-16T11:29:41.966Z,40.30
2022-11-16T11:32:45.201Z,39.40
2022-11-16T11:35:58.275Z,38.97
2022-11-16T11:39:08.651Z,41.17
2022-11-16T11:42:14.698Z,39.05
2022-11-16T11:45:18.368Z,36.13
2022-11-16T11:48:43.513Z,33.83
2022-11-16T11:51:47.311Z,37.38
2022-11-16T11:54:51.173Z,41.47
2022-11-16T11:57:54.487Z,37.47
2022-11-16T12:01:35.672Z,38.90
2022-11-16T12:04:56.732Z,37.83
2022-11-16T12:08:42.527Z,38.10
2022-11-16T12:12:15.999Z,36.80
2022-11-16T12:15:30.622Z,37.28
2022-11-16T12:18:45.785Z,36.17
2022-11-16T12:22:03.762Z,36.95
2022-11-16T12:25:29.350Z,33.55
2022-11-16T12:28:54.009Z,35.47
2022-11-16T12:32:12.889Z,34.25
2022-11-16T12:35:38.801Z,36.20
2022-11-16T12:39:03.466Z,33.22
2022-11-16T12:42:40.756Z,33.40
2022-11-16T12:45:43.664Z,30.98
2022-11-16T12:49:01.395Z,32.95
2022-11-16T12:52:26.679Z,34.47
2022-11-16T12:55:54.865Z,33.83
2022-11-16T12:59:22.508Z,32.55
2022-11-16T13:02:37.554Z,32.88
2022-11-16T13:05:45.701Z,32.90
2022-11-16T13:08:50.651Z,34.17
2022-11-16T13:11:58.817Z,33.40
2022-11-16T13:15:03.636Z,33.30
2022-11-16T13:18:08.473Z,34.05
2022-11-16T13:21:29.241Z,33.97
2022-11-16T13:24:47.501Z,33.90
2022-11-16T13:27:58.184Z,32.97
2022-11-16T13:31:08.557Z,31.73
2022-11-16T13:34:24.647Z,35.42
2022-11-16T13:37:40.033Z,35.00
2022-11-16T13:40:42.983Z,31.47
2022-11-16T13:43:49.573Z,28.45
2022-11-16T13:47:20.461Z,33.72
2022-11-16T13:50:34.529Z,34.05
2022-11-16T13:57:26.789Z,35.40
2022-11-16T14:00:40.204Z,35.67
2022-11-16T14:03:44.725Z,38.63
2022-11-16T14:06:47.697Z,34.58
2022-11-16T14:09:50.801Z,37.70
2022-11-16T14:12:57.316Z,35.77
2022-11-16T14:16:15.626Z,36.75
2022-11-16T14:19:44.708Z,32.80
2022-11-16T14:23:00.891Z,33.05
2022-11-16T14:26:23.622Z,35.97
2022-11-16T14:29:36.911Z,40.23
2022-11-16T14:32:48.403Z,37.67
2022-11-16T14:35:53.943Z,39.90
2022-11-16T14:39:33.337Z,32.65
2022-11-16T14:43:16.109Z,36.08
2022-11-16T14:46:26.475Z,36.83
2022-11-16T14:49:33.598Z,37.92
2022-11-16T14:52:40.394Z,38.67
2022-11-16T14:55:45.308Z,46.13
2022-11-16T14:58:57.827Z,42.92
2022-11-16T15:02:18.678Z,39.43
2022-11-16T15:05:24.017Z,40.22
2022-11-16T15:08:37.540Z,40.75
2022-11-16T15:12:00.414Z,35.97
2022-11-16T15:15:09.110Z,33.95
2022-11-16T15:18:15.976Z,52.27
2022-11-16T15:21:23.287Z,52.33
2022-11-16T15:24:32.469Z,43.28
2022-11-16T15:27:38.392Z,37.10
2022-11-16T15:30:41.696Z,36.58
2022-11-16T15:33:46.119Z,35.43
2022-11-16T15:36:49.401Z,36.25
2022-11-16T15:39:52.627Z,35.60
2022-11-16T15:42:56.469Z,33.47
2022-11-16T15:46:00.354Z,34.33
2022-11-16T15:49:03.477Z,34.87
2022-11-16T15:52:06.655Z,36.05
2022-11-16T15:55:29.193Z,35.53
2022-11-16T15:58:32.904Z,34.08
2022-11-16T16:01:42.427Z,38.25
2022-11-16T16:04:45.405Z,38.23
2022-11-16T16:07:48.808Z,34.33
2022-11-16T16:11:25.546Z,32.28
2022-11-16T16:14:30.910Z,34.65
2022-11-16T16:17:34.226Z,35.70
2022-11-16T16:20:37.360Z,39.30
2022-11-16T16:23:46.956Z,32.85
2022-11-16T16:26:50.139Z,34.50
2022-11-16T16:29:55.630Z,36.20
2022-11-16T16:32:58.634Z,37.40
2022-11-16T16:36:02.207Z,39.40
2022-11-16T16:39:05.336Z,41.33
2022-11-16T16:42:12.091Z,37.55
2022-11-16T16:45:21.885Z,39.50
2022-11-16T16:48:24.892Z,43.42
2022-11-16T16:51:27.893Z,41.13
2022-11-16T16:54:30.871Z,121.97
2022-11-16T16:57:33.805Z,44.13
2022-11-16T17:00:36.813Z,42.40
2022-11-16T17:03:40.106Z,37.83
2022-11-16T17:06:46.444Z,68.70
2022-11-16T17:09:49.850Z,71.37
2022-11-16T17:12:57.699Z,46.35
2022-11-16T17:16:04.956Z,39.53
2022-11-16T17:19:08.015Z,38.13
2022-11-16T17:22:11.107Z,40.70
2022-11-16T17:25:15.263Z,42.05
2022-11-16T17:28:18.307Z,41.80
2022-11-16T17:31:21.735Z,42.05
2022-11-16T17:34:25.165Z,41.80
2022-11-16T17:37:29.037Z,42.30
2022-11-16T17:40:32.570Z,43.85
2022-11-16T17:43:36.556Z,44.28
2022-11-16T17:46:40.210Z,42.78
2022-11-16T17:49:43.960Z,40.42
2022-11-16T17:52:47.298Z,47.63
2022-11-16T17:55:50.864Z,39.47
2022-11-16T17:58:58.843Z,44.50
2022-11-16T18:02:02.274Z,43.33
2022-11-16T18:05:05.942Z,41.75
2022-11-16T18:08:09.134Z,42.47
2022-11-16T18:11:15.404Z,41.88
2022-11-16T18:14:18.710Z,43.75
2022-11-16T18:17:22.095Z,51.08
2022-11-16T18:20:25.562Z,43.38
2022-11-16T18:23:29.427Z,46.83
2022-11-16T18:26:33.007Z,52.75
2022-11-16T18:29:37.294Z,52.00
2022-11-16T18:32:40.909Z,48.60
2022-11-16T18:35:44.863Z,44.35
2022-11-16T18:38:48.430Z,41.70
2022-11-16T18:41:55.223Z,40.95
2022-11-16T18:44:58.741Z,39.53
2022-11-16T18:48:02.228Z,37.38
2022-11-16T18:51:06.020Z,35.63
2022-11-16T18:54:09.745Z,41.33
2022-11-16T18:57:13.199Z,42.25
2022-11-16T19:00:19.527Z,40.90
2022-11-16T19:03:23.217Z,53.33
2022-11-16T19:06:27.018Z,52.10
2022-11-16T19:09:30.455Z,44.40
2022-11-16T19:12:34.222Z,38.30
2022-11-16T19:15:37.610Z,39.35
2022-11-16T19:18:45.962Z,35.22
2022-11-16T19:21:54.359Z,39.15
2022-11-16T19:25:01.759Z,38.40
2022-11-16T19:28:13.066Z,39.00
2022-11-16T19:31:18.166Z,44.15
2022-11-16T19:34:21.929Z,50.55
2022-11-16T19:37:25.513Z,80.43
2022-11-16T19:40:29.182Z,73.97
2022-11-16T19:43:36.176Z,56.75
2022-11-16T19:46:39.770Z,98.57
2022-11-16T19:49:43.923Z,48.90
2022-11-16T19:52:47.514Z,45.40
2022-11-16T19:55:55.294Z,41.73
2022-11-16T19:58:59.230Z,46.70
2022-11-16T20:02:03.121Z,42.80
2022-11-16T20:05:07.245Z,47.22
2022-11-16T20:08:11.731Z,43.47
2022-11-16T20:11:21.027Z,40.80
2022-11-16T20:14:24.741Z,41.42
2022-11-16T20:17:28.240Z,38.90
2022-11-16T20:20:32.783Z,47.45
2022-11-16T20:23:37.896Z,45.03
2022-11-16T20:26:45.065Z,45.97
2022-11-16T20:29:48.548Z,44.58
2022-11-16T20:32:52.791Z,45.22
2022-11-16T20:36:07.722Z,42.78
2022-11-16T20:39:17.298Z,41.60
2022-11-16T20:42:20.777Z,39.03
2022-11-16T20:45:24.461Z,44.25
2022-11-16T20:48:28.895Z,43.83
2022-11-16T20:51:32.292Z,36.40
2022-11-16T20:54:35.564Z,38.60
2022-11-16T20:57:38.647Z,36.53
2022-11-16T21:00:42.478Z,37.55
2022-11-16T21:03:46.896Z,39.80
2022-11-16T21:06:50.371Z,37.45
2022-11-16T21:10:11.728Z,37.20
2022-11-16T21:13:38.016Z,36.20
2022-11-16T21:16:41.595Z,38.78
2022-11-16T21:20:05.471Z,38.05
2022-11-16T21:23:07.678Z,36.85
2022-11-16T21:26:12.523Z,34.70
2022-11-16T21:29:15.787Z,30.20
2022-11-16T21:32:18.766Z,37.28
2022-11-16T21:35:21.759Z,34.17
2022-11-16T21:38:25.869Z,31.30
2022-11-16T21:41:30.297Z,34.90
2022-11-16T21:44:42.806Z,32.37
2022-11-16T21:47:45.954Z,34.10
2022-11-16T21:50:50.110Z,35.83
2022-11-16T21:53:54.269Z,37.28
2022-11-16T21:56:57.134Z,34.40
2022-11-16T22:00:01.547Z,32.40
2022-11-16T22:03:04.626Z,32.03
2022-11-16T22:06:27.159Z,34.17
2022-11-16T22:09:30.005Z,30.48
2022-11-16T22:12:33.724Z,33.70
2022-11-16T22:15:36.633Z,26.50
2022-11-16T22:18:39.992Z,27.10
2022-11-16T22:21:42.985Z,26.08
2022-11-16T22:24:45.856Z,24.23
2022-11-16T22:28:13.771Z,30.05
2022-11-16T22:31:14.811Z,25.83
2022-11-16T22:34:17.724Z,26.50
2022-11-16T22:37:20.814Z,30.02
2022-11-16T22:40:23.843Z,28.40
2022-11-16T22:43:28.498Z,29.87
2022-11-16T22:46:31.481Z,28.20
2022-11-16T22:49:34.303Z,31.95
2022-11-16T22:52:37.179Z,26.25
2022-11-16T22:55:40.036Z,27.62
2022-11-16T22:58:42.944Z,34.20
2022-11-16T23:01:45.778Z,29.70
2022-11-16T23:04:48.674Z,33.70
2022-11-16T23:07:51.561Z,32.65
2022-11-16T23:11:23.706Z,32.78
2022-11-16T23:14:44.942Z,32.97
2022-11-16T23:17:47.837Z,32.07
2022-11-16T23:21:09.263Z,30.75
2022-11-16T23:24:31.724Z,29.70
2022-11-16T23:27:37.519Z,33.70
2022-11-16T23:30:41.427Z,31.65
2022-11-16T23:33:44.296Z,32.63
2022-11-16T23:36:47.013Z,38.28
2022-11-16T23:39:50.162Z,35.60
2022-11-16T23:43:12.104Z,35.42
2022-11-16T23:46:14.962Z,31.77
2022-11-16T23:49:17.714Z,31.93
2022-11-16T23:52:20.611Z,31.90
2022-11-16T23:55:23.529Z,35.80
2022-11-16T23:58:26.356Z,29.35
